createdAt,value
2023-02-11T00:00:38.895Z,95.90
2023-02-11T00:03:05.550Z,95.90
2023-02-11T00:05:32.205Z,95.80
2023-02-11T00:07:58.849Z,95.70
2023-02-11T00:10:25.616Z,95.50
2023-02-11T00:12:52.341Z,95.50
2023-02-11T00:15:19.007Z,95.60
2023-02-11T00:17:45.674Z,95.60
2023-02-11T00:20:12.356Z,95.70
2023-02-11T00:22:38.983Z,95.60
2023-02-11T00:25:05.793Z,95.70
2023-02-11T00:27:32.422Z,95.70
2023-02-11T00:30:00.526Z,95.70
2023-02-11T00:32:27.148Z,95.80
2023-02-11T00:34:55.230Z,96.00
2023-02-11T00:37:22.361Z,96.10
2023-02-11T00:39:50.205Z,96.40
2023-02-11T00:42:16.928Z,96.20
2023-02-11T00:44:43.607Z,96.20
2023-02-11T00:47:10.205Z,96.20
2023-02-11T00:49:37.041Z,96.30
2023-02-11T00:52:03.858Z,96.40
2023-02-11T00:54:30.509Z,96.40
2023-02-11T00:56:57.075Z,96.20
2023-02-11T00:59:23.788Z,96.20
2023-02-11T01:01:50.460Z,96.50
2023-02-11T01:04:17.232Z,96.30
2023-02-11T01:06:43.928Z,96.20
2023-02-11T01:09:10.616Z,96.30
2023-02-11T01:11:37.372Z,96.20
2023-02-11T01:14:04.028Z,96.20
2023-02-11T01:16:30.807Z,96.20
2023-02-11T01:18:58.802Z,96.20
2023-02-11T01:21:25.784Z,96.20
2023-02-11T01:23:52.515Z,96.20
2023-02-11T01:26:19.236Z,96.20
2023-02-11T01:28:46.011Z,96.20
2023-02-11T01:31:12.789Z,96.20
2023-02-11T01:33:39.860Z,96.20
2023-02-11T01:36:07.464Z,96.40
2023-02-11T01:38:34.285Z,96.60
2023-02-11T01:41:03.223Z,96.70
2023-02-11T01:43:32.232Z,96.70
2023-02-11T01:46:01.013Z,96.70
2023-02-11T01:48:41.725Z,96.60
2023-02-11T01:51:14.249Z,96.70
2023-02-11T01:53:59.598Z,96.70
2023-02-11T01:56:46.494Z,96.60
2023-02-11T01:59:22.612Z,96.80
2023-02-11T02:01:51.964Z,97.00
2023-02-11T02:04:19.727Z,97.20
2023-02-11T02:06:50.703Z,97.30
2023-02-11T02:09:21.826Z,97.30
2023-02-11T02:11:48.545Z,97.20
2023-02-11T02:14:15.196Z,97.20
2023-02-11T02:16:41.940Z,97.00
2023-02-11T02:19:41.022Z,96.80
2023-02-11T02:22:26.231Z,96.80
2023-02-11T02:25:19.279Z,96.80
2023-02-11T02:27:49.325Z,96.90
2023-02-11T02:30:45.472Z,96.70
2023-02-11T02:33:22.523Z,96.60
2023-02-11T02:36:08.035Z,96.60
2023-02-11T02:38:46.864Z,96.50
2023-02-11T02:41:15.753Z,96.70
2023-02-11T02:43:44.151Z,96.90
2023-02-11T02:46:16.047Z,97.00
2023-02-11T02:48:43.173Z,97.00
2023-02-11T02:51:15.340Z,96.90
2023-02-11T02:53:49.985Z,96.90
2023-02-11T02:56:25.926Z,96.80
2023-02-11T02:59:07.443Z,96.80
2023-02-11T03:01:43.592Z,96.90
2023-02-11T03:04:13.401Z,96.90
2023-02-11T03:06:46.117Z,97.00
2023-02-11T03:09:26.176Z,97.10
2023-02-11T03:11:52.821Z,97.00
2023-02-11T03:14:21.653Z,97.00
2023-02-11T03:16:49.202Z,96.90
2023-02-11T03:19:18.808Z,97.00
2023-02-11T03:21:46.865Z,97.10
2023-02-11T03:24:16.092Z,97.20
2023-02-11T03:26:42.707Z,97.20
2023-02-11T03:29:14.617Z,97.20
2023-02-11T03:31:50.401Z,97.20
2023-02-11T03:34:23.013Z,97.10
2023-02-11T03:36:52.200Z,97.00
2023-02-11T03:39:25.423Z,97.00
2023-02-11T03:41:53.312Z,96.90
2023-02-11T03:44:21.475Z,96.90
2023-02-11T03:46:50.197Z,96.60
2023-02-11T03:49:20.230Z,96.50
2023-02-11T03:51:48.421Z,96.50
2023-02-11T03:54:16.570Z,96.10
2023-02-11T03:56:51.591Z,96.10
2023-02-11T03:59:18.371Z,96.00
2023-02-11T04:01:45.014Z,95.90
2023-02-11T04:04:11.840Z,96.00
2023-02-11T04:06:38.623Z,95.90
2023-02-11T04:09:05.236Z,95.90
2023-02-11T04:11:32.105Z,95.80
2023-02-11T04:13:58.803Z,95.90
2023-02-11T04:16:25.481Z,96.20
2023-02-11T04:18:52.210Z,96.20
2023-02-11T04:21:18.922Z,96.30
2023-02-11T04:23:45.658Z,96.10
2023-02-11T04:26:12.251Z,96.00
2023-02-11T04:28:39.110Z,95.90
2023-02-11T04:31:05.854Z,95.90
2023-02-11T04:33:32.479Z,95.90
2023-02-11T04:35:59.150Z,96.00
2023-02-11T04:38:25.862Z,96.00
2023-02-11T04:40:52.496Z,96.10
2023-02-11T04:43:19.183Z,96.30
2023-02-11T04:45:45.838Z,96.30
2023-02-11T04:48:12.576Z,96.10
2023-02-11T04:50:39.387Z,96.10
2023-02-11T04:53:06.086Z,96.00
2023-02-11T04:55:32.708Z,96.00
2023-02-11T04:57:59.436Z,96.00
2023-02-11T05:00:26.243Z,95.90
2023-02-11T05:02:52.965Z,96.00
2023-02-11T05:05:19.701Z,96.10
2023-02-11T05:07:46.869Z,96.10
2023-02-11T05:10:13.518Z,96.70
2023-02-11T05:12:40.161Z,95.90
2023-02-11T05:15:06.946Z,96.00
2023-02-11T05:17:33.749Z,96.10
2023-02-11T05:20:00.367Z,96.20
2023-02-11T05:22:27.129Z,96.30
2023-02-11T05:24:53.814Z,96.40
2023-02-11T05:27:20.429Z,96.80
2023-02-11T05:29:47.026Z,96.60
2023-02-11T05:32:13.810Z,96.70
2023-02-11T05:34:40.496Z,96.70
2023-02-11T05:37:07.108Z,96.80
2023-02-11T05:39:33.874Z,96.80
2023-02-11T05:42:00.626Z,96.90
2023-02-11T05:44:27.301Z,96.80
2023-02-11T05:46:53.975Z,96.70
2023-02-11T05:49:20.737Z,96.60
2023-02-11T05:51:47.713Z,96.60
2023-02-11T05:54:14.427Z,96.40
2023-02-11T05:56:43.721Z,96.40
2023-02-11T05:59:13.008Z,96.50
2023-02-11T06:01:39.673Z,96.40
2023-02-11T06:04:06.394Z,96.50
2023-02-11T06:06:33.016Z,96.50
2023-02-11T06:08:59.691Z,96.60
2023-02-11T06:11:26.266Z,96.50
2023-02-11T06:13:52.977Z,96.60
2023-02-11T06:16:19.705Z,96.50
2023-02-11T06:18:46.390Z,96.60
2023-02-11T06:21:13.075Z,96.60
2023-02-11T06:23:39.846Z,96.40
2023-02-11T06:26:07.872Z,96.30
2023-02-11T06:28:35.853Z,96.40
2023-02-11T06:31:06.836Z,96.30
2023-02-11T06:33:34.465Z,96.10
2023-02-11T06:36:01.647Z,95.80
2023-02-11T06:38:28.489Z,95.50
2023-02-11T06:40:55.104Z,95.40
2023-02-11T06:43:21.873Z,95.50
2023-02-11T06:45:55.884Z,94.60
2023-02-11T06:48:23.593Z,94.40
2023-02-11T06:50:50.273Z,94.20
2023-02-11T06:53:16.862Z,93.90
2023-02-11T06:55:43.476Z,93.90
2023-02-11T06:58:10.419Z,94.00
2023-02-11T07:00:37.509Z,94.00
2023-02-11T07:03:04.298Z,94.00
2023-02-11T07:05:31.070Z,93.60
2023-02-11T07:07:57.875Z,93.40
2023-02-11T07:10:24.529Z,92.90
2023-02-11T07:12:51.294Z,93.30
2023-02-11T07:15:21.042Z,93.10
2023-02-11T07:17:47.735Z,93.60
2023-02-11T07:20:15.001Z,93.40
2023-02-11T07:22:41.658Z,93.70
2023-02-11T07:25:08.373Z,94.40
2023-02-11T07:27:35.199Z,93.40
2023-02-11T07:30:01.866Z,93.20
2023-02-11T07:32:28.665Z,92.90
2023-02-11T07:34:55.649Z,92.70
2023-02-11T07:37:22.266Z,92.20
2023-02-11T07:39:49.009Z,92.10
2023-02-11T07:42:15.709Z,92.00
2023-02-11T07:44:42.343Z,92.00
2023-02-11T07:47:09.108Z,92.10
2023-02-11T07:55:11.661Z,92.60
2023-02-11T07:57:38.270Z,92.30
2023-02-11T08:00:05.698Z,91.90
2023-02-11T08:02:32.384Z,91.80
2023-02-11T08:04:59.014Z,91.10
2023-02-11T08:07:26.096Z,90.80
2023-02-11T08:09:54.756Z,90.80
2023-02-11T08:12:21.385Z,90.60
2023-02-11T08:14:49.814Z,90.60
2023-02-11T08:17:18.074Z,90.20
2023-02-11T08:19:44.843Z,90.10
2023-02-11T08:22:13.734Z,90.20
2023-02-11T08:24:40.384Z,90.10
2023-02-11T08:27:06.926Z,89.90
2023-02-11T08:29:33.550Z,89.40
2023-02-11T08:32:00.207Z,88.90
2023-02-11T08:34:26.763Z,88.10
2023-02-11T08:36:54.014Z,88.00
2023-02-11T08:39:21.455Z,86.30
2023-02-11T08:41:49.092Z,86.40
2023-02-11T08:44:16.274Z,85.90
2023-02-11T08:46:42.888Z,85.90
2023-02-11T08:49:09.532Z,85.90
2023-02-11T08:51:36.164Z,85.40
2023-02-11T08:54:02.824Z,85.70
2023-02-11T08:56:31.390Z,86.30
2023-02-11T08:58:58.051Z,86.50
2023-02-11T09:01:26.903Z,85.80
2023-02-11T09:03:54.151Z,86.10
2023-02-11T09:06:22.384Z,85.90
2023-02-11T09:08:50.578Z,85.60
2023-02-11T09:11:18.301Z,85.60
2023-02-11T09:13:45.247Z,84.20
2023-02-11T09:16:20.636Z,83.80
2023-02-11T09:18:47.919Z,82.90
2023-02-11T09:21:15.922Z,82.40
2023-02-11T09:23:44.777Z,82.40
2023-02-11T09:26:14.212Z,81.70
2023-02-11T09:28:41.091Z,81.80
2023-02-11T09:31:08.878Z,82.20
2023-02-11T09:33:35.667Z,80.70
2023-02-11T09:36:03.316Z,80.70
2023-02-11T09:38:30.210Z,80.00
2023-02-11T09:40:56.880Z,79.00
2023-02-11T09:43:27.679Z,78.40
2023-02-11T09:45:55.369Z,77.40
2023-02-11T09:48:22.435Z,77.20
2023-02-11T09:51:00.169Z,77.10
2023-02-11T09:53:27.922Z,76.90
2023-02-11T09:55:56.445Z,76.90
2023-02-11T09:58:26.411Z,76.30
2023-02-11T10:01:08.452Z,77.60
2023-02-11T10:03:58.213Z,76.50
2023-02-11T10:06:32.429Z,76.50
2023-02-11T10:08:59.008Z,76.00
2023-02-11T10:11:45.907Z,74.70
2023-02-11T10:14:15.481Z,74.20
2023-02-11T10:17:00.864Z,74.50
2023-02-11T10:19:33.648Z,74.30
2023-02-11T10:22:06.278Z,74.30
2023-02-11T10:24:34.015Z,74.80
2023-02-11T10:27:01.528Z,74.70
2023-02-11T10:29:33.950Z,74.40
2023-02-11T10:32:01.776Z,73.80
2023-02-11T10:34:28.372Z,72.80
2023-02-11T10:36:55.005Z,72.70
2023-02-11T10:39:23.370Z,71.30
2023-02-11T10:41:54.891Z,71.00
2023-02-11T10:44:23.978Z,70.70
2023-02-11T10:46:51.093Z,70.10
2023-02-11T10:49:33.579Z,66.10
2023-02-11T10:52:12.788Z,64.00
2023-02-11T10:54:39.345Z,64.40
2023-02-11T10:57:07.485Z,63.00
2023-02-11T10:59:40.679Z,63.10
2023-02-11T11:02:21.396Z,62.90
2023-02-11T11:04:48.572Z,64.00
2023-02-11T11:07:29.304Z,63.10
2023-02-11T11:10:06.618Z,63.20
2023-02-11T11:12:33.240Z,62.10
2023-02-11T11:15:01.464Z,62.60
2023-02-11T11:17:31.281Z,62.30
2023-02-11T11:20:16.375Z,62.50
2023-02-11T11:22:43.509Z,62.60
2023-02-11T11:25:29.383Z,63.30
2023-02-11T11:27:57.986Z,63.70
2023-02-11T11:30:33.436Z,64.20
2023-02-11T11:33:00.681Z,64.90
2023-02-11T11:35:29.505Z,65.60
2023-02-11T11:38:02.055Z,64.70
2023-02-11T11:40:30.473Z,64.70
2023-02-11T11:43:12.358Z,64.30
2023-02-11T11:45:38.981Z,64.30
2023-02-11T11:48:23.946Z,63.60
2023-02-11T11:50:56.235Z,63.60
2023-02-11T11:53:22.811Z,61.30
2023-02-11T11:56:04.833Z,61.10
2023-02-11T11:58:32.027Z,59.60
2023-02-11T12:01:10.982Z,60.00
2023-02-11T12:03:56.487Z,59.60
2023-02-11T12:06:35.189Z,58.10
2023-02-11T12:09:07.891Z,58.00
2023-02-11T12:11:34.472Z,57.60
2023-02-11T12:14:01.078Z,58.30
2023-02-11T12:16:27.680Z,56.90
2023-02-11T12:19:12.866Z,57.60
2023-02-11T12:21:54.514Z,57.80
2023-02-11T12:24:41.381Z,55.60
2023-02-11T12:27:14.576Z,55.90
2023-02-11T12:29:44.318Z,55.80
2023-02-11T12:32:17.714Z,54.70
2023-02-11T12:34:50.575Z,53.90
2023-02-11T12:37:22.672Z,53.50
2023-02-11T12:40:01.492Z,53.80
2023-02-11T12:42:53.252Z,53.50
2023-02-11T12:45:34.914Z,53.10
2023-02-11T12:48:15.114Z,53.70
2023-02-11T12:50:41.723Z,53.50
2023-02-11T12:53:14.018Z,54.20
2023-02-11T12:55:42.909Z,53.90
2023-02-11T12:58:14.788Z,54.60
2023-02-11T13:01:06.129Z,54.70
2023-02-11T13:03:47.434Z,55.10
2023-02-11T13:06:16.185Z,53.90
2023-02-11T13:08:50.444Z,55.10
2023-02-11T13:11:22.852Z,55.00
2023-02-11T13:13:55.076Z,53.50
2023-02-11T13:16:21.660Z,54.00
2023-02-11T13:18:54.712Z,54.40
2023-02-11T13:21:30.374Z,54.10
2023-02-11T13:23:57.943Z,52.40
2023-02-11T13:26:31.759Z,52.90
2023-02-11T13:29:17.230Z,51.00
2023-02-11T13:31:52.447Z,51.40
2023-02-11T13:34:25.134Z,49.90
2023-02-11T13:36:54.645Z,48.10
2023-02-11T13:39:21.907Z,48.00
2023-02-11T13:41:52.553Z,46.80
2023-02-11T13:44:22.501Z,48.40
2023-02-11T13:46:52.833Z,47.40
2023-02-11T13:49:40.791Z,47.20
2023-02-11T13:52:21.780Z,46.20
2023-02-11T13:54:50.837Z,44.60
2023-02-11T13:57:20.240Z,44.60
2023-02-11T13:59:54.651Z,43.60
2023-02-11T14:02:45.270Z,44.00
2023-02-11T14:05:36.988Z,44.70
2023-02-11T14:08:28.622Z,45.50
2023-02-11T14:10:59.477Z,46.00
2023-02-11T14:13:26.074Z,44.70
2023-02-11T14:16:11.056Z,45.60
2023-02-11T14:18:39.000Z,45.60
2023-02-11T14:21:13.127Z,45.90
2023-02-11T14:23:40.110Z,46.80
2023-02-11T14:26:29.138Z,47.30
2023-02-11T14:28:55.743Z,47.70
2023-02-11T14:31:25.220Z,48.30
2023-02-11T14:34:04.463Z,48.40
2023-02-11T14:36:49.777Z,49.10
2023-02-11T14:39:19.348Z,49.30
2023-02-11T14:41:47.200Z,49.80
2023-02-11T14:44:22.022Z,50.10
2023-02-11T14:46:50.779Z,50.80
2023-02-11T14:49:23.573Z,52.20
2023-02-11T14:51:50.166Z,53.30
2023-02-11T14:54:18.052Z,53.60
2023-02-11T14:56:44.768Z,53.80
2023-02-11T14:59:22.661Z,54.30
2023-02-11T15:01:50.338Z,54.60
2023-02-11T15:04:30.385Z,54.70
2023-02-11T15:06:59.315Z,55.00
2023-02-11T15:09:42.697Z,55.40
2023-02-11T15:12:18.608Z,55.90
2023-02-11T15:14:49.309Z,56.40
2023-02-11T15:17:18.236Z,56.30
2023-02-11T15:19:48.149Z,57.00
2023-02-11T15:22:20.121Z,57.10
2023-02-11T15:24:57.321Z,57.70
2023-02-11T15:27:25.772Z,57.40
2023-02-11T15:29:52.352Z,58.10
2023-02-11T15:32:21.572Z,58.80
2023-02-11T15:34:50.249Z,58.30
2023-02-11T15:37:19.884Z,58.40
2023-02-11T15:39:46.529Z,58.60
2023-02-11T15:42:17.089Z,59.10
2023-02-11T15:44:43.665Z,59.90
2023-02-11T15:47:11.394Z,60.10
2023-02-11T15:49:39.661Z,60.90
2023-02-11T15:52:08.178Z,61.20
2023-02-11T15:54:34.937Z,60.40
2023-02-11T15:57:03.651Z,61.50
2023-02-11T15:59:34.796Z,62.30
2023-02-11T16:02:19.534Z,62.90
2023-02-11T16:04:54.403Z,62.70
2023-02-11T16:07:41.160Z,64.10
2023-02-11T16:10:16.529Z,63.80
2023-02-11T16:12:50.423Z,63.90
2023-02-11T16:15:38.158Z,63.90
2023-02-11T16:18:13.045Z,64.00
2023-02-11T16:20:39.865Z,64.30
2023-02-11T16:23:07.287Z,64.50
2023-02-11T16:25:37.458Z,64.80
2023-02-11T16:28:05.051Z,65.70
2023-02-11T16:30:31.713Z,66.20
2023-02-11T16:32:58.426Z,67.20
2023-02-11T16:35:24.984Z,67.80
2023-02-11T16:37:51.625Z,68.60
2023-02-11T16:40:18.332Z,68.80
2023-02-11T16:42:44.921Z,69.70
2023-02-11T16:45:12.208Z,70.10
2023-02-11T16:47:40.973Z,70.20
2023-02-11T16:50:11.755Z,70.30
2023-02-11T16:52:38.362Z,70.30
2023-02-11T16:55:06.082Z,70.70
2023-02-11T16:57:32.678Z,71.50
2023-02-11T16:59:59.519Z,71.60
2023-02-11T17:02:27.396Z,72.10
2023-02-11T17:04:54.507Z,72.00
2023-02-11T17:07:21.243Z,72.80
2023-02-11T17:09:47.984Z,72.20
2023-02-11T17:12:14.673Z,72.80
2023-02-11T17:14:41.252Z,73.40
2023-02-11T17:17:09.066Z,73.30
2023-02-11T17:19:35.653Z,73.60
2023-02-11T17:22:02.544Z,74.20
2023-02-11T17:24:29.155Z,74.20
2023-02-11T17:26:55.845Z,74.70
2023-02-11T17:29:23.695Z,75.40
2023-02-11T17:31:51.987Z,75.80
2023-02-11T17:34:19.259Z,76.00
2023-02-11T17:36:45.815Z,75.90
2023-02-11T17:39:12.631Z,75.90
2023-02-11T17:41:39.536Z,75.90
2023-02-11T17:44:06.878Z,75.80
2023-02-11T17:46:36.314Z,76.60
2023-02-11T17:49:03.208Z,76.50
2023-02-11T17:51:31.393Z,76.80
2023-02-11T17:53:59.079Z,76.80
2023-02-11T17:56:25.974Z,77.70
2023-02-11T17:58:53.188Z,77.30
2023-02-11T18:01:20.372Z,77.50
2023-02-11T18:03:47.046Z,77.40
2023-02-11T18:06:13.644Z,77.50
2023-02-11T18:08:41.812Z,77.50
2023-02-11T18:11:12.011Z,77.90
2023-02-11T18:13:38.589Z,78.00
2023-02-11T18:16:05.870Z,78.20
2023-02-11T18:18:32.487Z,78.70
2023-02-11T18:20:59.995Z,78.80
2023-02-11T18:23:27.443Z,79.10
2023-02-11T18:25:54.186Z,79.20
2023-02-11T18:28:20.915Z,79.40
2023-02-11T18:30:47.576Z,79.70
2023-02-11T18:33:14.483Z,80.00
2023-02-11T18:35:41.877Z,80.10
2023-02-11T18:38:09.411Z,80.40
2023-02-11T18:40:39.428Z,80.30
2023-02-11T18:43:06.142Z,80.40
2023-02-11T18:45:33.116Z,80.60
2023-02-11T18:48:01.641Z,80.70
2023-02-11T18:50:28.365Z,81.00
2023-02-11T18:52:54.940Z,81.20
2023-02-11T18:55:25.400Z,81.50
2023-02-11T18:57:52.894Z,81.50
2023-02-11T19:00:20.185Z,81.50
2023-02-11T19:02:46.769Z,81.40
2023-02-11T19:05:13.811Z,81.50
2023-02-11T19:07:40.369Z,81.30
2023-02-11T19:10:07.605Z,81.60
2023-02-11T19:12:34.257Z,81.80
2023-02-11T19:15:00.883Z,81.80
2023-02-11T19:17:27.607Z,82.30
2023-02-11T19:19:54.197Z,83.40
2023-02-11T19:22:20.801Z,82.50
2023-02-11T19:24:47.475Z,82.50
2023-02-11T19:27:14.077Z,82.50
2023-02-11T19:29:40.780Z,82.70
2023-02-11T19:32:07.632Z,82.90
2023-02-11T19:34:41.129Z,83.20
2023-02-11T19:37:08.783Z,83.90
2023-02-11T19:39:35.421Z,83.80
2023-02-11T19:42:02.189Z,83.90
2023-02-11T19:44:28.754Z,84.00
2023-02-11T19:46:55.374Z,84.80
2023-02-11T19:49:26.348Z,84.70
2023-02-11T19:51:53.914Z,85.20
2023-02-11T19:54:20.729Z,84.90
2023-02-11T19:56:48.662Z,85.00
2023-02-11T19:59:15.903Z,85.10
2023-02-11T20:01:42.566Z,85.30
2023-02-11T20:04:09.383Z,85.40
2023-02-11T20:06:36.074Z,85.40
2023-02-11T20:09:07.253Z,85.40
2023-02-11T20:11:35.065Z,85.50
2023-02-11T20:14:02.064Z,85.90
2023-02-11T20:16:46.309Z,86.20
2023-02-11T20:19:19.944Z,86.50
2023-02-11T20:21:47.819Z,86.60
2023-02-11T20:24:15.534Z,86.80
2023-02-11T20:26:42.536Z,87.00
2023-02-11T20:29:09.298Z,87.10
2023-02-11T20:31:36.187Z,87.20
2023-02-11T20:34:02.970Z,87.60
2023-02-11T20:36:32.011Z,87.60
2023-02-11T20:38:59.138Z,87.50
2023-02-11T20:41:28.024Z,87.50
2023-02-11T20:43:55.486Z,87.70
2023-02-11T20:46:24.121Z,87.60
2023-02-11T20:48:51.557Z,87.30
2023-02-11T20:51:24.331Z,87.20
2023-02-11T20:53:51.344Z,87.30
2023-02-11T20:56:19.738Z,87.40
2023-02-11T20:58:46.323Z,87.60
2023-02-11T21:01:18.963Z,88.10
2023-02-11T21:03:49.161Z,87.00
2023-02-11T21:06:15.750Z,87.10
2023-02-11T21:08:42.316Z,86.90
2023-02-11T21:11:09.338Z,86.70
2023-02-11T21:13:36.907Z,86.80
2023-02-11T21:16:03.689Z,86.50
2023-02-11T21:18:30.591Z,86.20
2023-02-11T21:20:57.448Z,86.40
2023-02-11T21:23:24.764Z,87.00
2023-02-11T21:25:53.092Z,86.40
2023-02-11T21:28:23.910Z,85.80
2023-02-11T21:30:50.606Z,86.00
2023-02-11T21:33:17.303Z,86.50
2023-02-11T21:35:44.061Z,86.20
2023-02-11T21:38:10.961Z,85.70
2023-02-11T21:40:37.981Z,86.10
2023-02-11T21:43:05.560Z,86.60
2023-02-11T21:45:32.539Z,86.10
2023-02-11T21:47:59.177Z,86.10
2023-02-11T21:50:25.768Z,86.00
2023-02-11T21:52:52.341Z,86.10
2023-02-11T21:55:19.000Z,86.50
2023-02-11T21:57:45.600Z,86.40
2023-02-11T22:00:12.729Z,85.90
2023-02-11T22:02:39.323Z,86.60
2023-02-11T22:05:06.038Z,86.60
2023-02-11T22:07:34.958Z,86.60
2023-02-11T22:10:01.573Z,86.80
2023-02-11T22:12:28.178Z,87.10
2023-02-11T22:14:54.778Z,87.20
2023-02-11T22:17:21.900Z,87.10
2023-02-11T22:19:48.754Z,87.20
2023-02-11T22:22:18.212Z,87.10
2023-02-11T22:24:47.568Z,87.40
2023-02-11T22:27:14.927Z,87.40
2023-02-11T22:29:41.991Z,87.70
2023-02-11T22:32:09.053Z,87.70
2023-02-11T22:34:35.818Z,87.80
2023-02-11T22:37:02.502Z,88.10
2023-02-11T22:39:29.322Z,88.30
2023-02-11T22:41:56.613Z,88.30
2023-02-11T22:44:23.918Z,88.50
2023-02-11T22:46:50.977Z,88.70
2023-02-11T22:49:18.420Z,89.00
2023-02-11T22:51:45.375Z,88.90
2023-02-11T22:54:15.140Z,89.00
2023-02-11T22:56:41.812Z,88.70
2023-02-11T22:59:10.650Z,88.60
2023-02-11T23:01:37.548Z,88.80
2023-02-11T23:04:05.303Z,88.70
2023-02-11T23:06:32.353Z,89.00
2023-02-11T23:08:59.103Z,88.80
2023-02-11T23:11:29.710Z,88.80
2023-02-11T23:13:56.547Z,88.90
2023-02-11T23:16:27.769Z,89.20
2023-02-11T23:18:54.861Z,89.20
2023-02-11T23:21:22.910Z,89.00
2023-02-11T23:23:53.493Z,89.40
2023-02-11T23:26:20.105Z,89.50
2023-02-11T23:28:47.226Z,89.50
2023-02-11T23:31:17.050Z,89.50
2023-02-11T23:33:43.937Z,89.60
2023-02-11T23:36:10.898Z,89.30
2023-02-11T23:38:37.567Z,89.60
2023-02-11T23:41:04.280Z,89.70
2023-02-11T23:43:31.069Z,90.00
2023-02-11T23:45:57.932Z,90.10
2023-02-11T23:48:25.132Z,90.00
2023-02-11T23:50:51.719Z,90.00
2023-02-11T23:53:18.319Z,89.90
2023-02-11T23:55:45.980Z,90.10
2023-02-11T23:58:14.427Z,89.90
